createdAt,value
2024-03-12T00:00:07.855Z,97556.22
2024-03-12T00:04:11.132Z,97559.97
2024-03-12T00:08:15.394Z,97563.84
2024-03-12T00:12:19.154Z,97560.31
2024-03-12T00:16:24.515Z,97563.09
2024-03-12T00:20:31.463Z,97565.13
2024-03-12T00:24:35.032Z,97570.56
2024-03-12T00:28:38.083Z,97582.78
2024-03-12T00:32:44.607Z,97585.16
2024-03-12T00:36:49.149Z,97597.63
2024-03-12T00:40:52.122Z,97604.34
2024-03-12T00:44:55.027Z,97596.50
2024-03-12T00:49:00.965Z,97590.97
2024-03-12T00:53:03.976Z,97600.69
2024-03-12T00:57:07.529Z,97603.25
2024-03-12T01:01:15.868Z,97600.63
2024-03-12T01:05:21.920Z,97605.25
2024-03-12T01:09:25.221Z,97601.72
2024-03-12T01:13:29.318Z,97600.03
2024-03-12T01:17:32.379Z,97607.19
2024-03-12T01:21:36.820Z,97610.81
2024-03-12T01:25:40.627Z,97616.16
2024-03-12T01:29:44.544Z,97613.66
2024-03-12T01:33:48.038Z,97619.09
2024-03-12T01:37:52.969Z,97623.53
2024-03-12T01:41:56.163Z,97618.44
2024-03-12T01:46:00.741Z,97622.03
2024-03-12T01:50:05.218Z,97619.34
2024-03-12T01:54:10.111Z,97634.13
2024-03-12T01:58:15.796Z,97639.66
2024-03-12T02:02:19.110Z,97650.41
2024-03-12T02:06:22.762Z,97643.84
2024-03-12T02:10:27.217Z,97650.13
2024-03-12T02:14:30.161Z,97649.22
2024-03-12T02:18:34.218Z,97651.06
2024-03-12T02:22:37.597Z,97659.94
2024-03-12T02:26:41.971Z,97661.78
2024-03-12T02:30:44.928Z,97663.31
2024-03-12T02:34:50.476Z,97649.22
2024-03-12T02:38:53.408Z,97659.13
2024-03-12T02:42:57.666Z,97663.88
2024-03-12T02:47:00.560Z,97675.78
2024-03-12T02:51:03.545Z,97675.69
2024-03-12T02:55:07.968Z,97671.59
2024-03-12T02:59:14.110Z,97669.84
2024-03-12T03:03:17.070Z,97663.63
2024-03-12T03:07:20.472Z,97668.13
2024-03-12T03:11:23.446Z,97662.13
2024-03-12T03:15:27.971Z,97671.97
2024-03-12T03:19:30.849Z,97676.59
2024-03-12T03:23:36.054Z,97684.88
2024-03-12T03:27:39.026Z,97679.41
2024-03-12T03:31:44.378Z,97681.94
2024-03-12T03:35:47.288Z,97683.63
2024-03-12T03:39:50.359Z,97690.50
2024-03-12T03:43:53.361Z,97693.09
2024-03-12T03:47:58.144Z,97695.88
2024-03-12T03:52:01.127Z,97694.03
2024-03-12T03:56:04.316Z,97704.28
2024-03-12T04:00:14.256Z,97708.47
2024-03-12T04:04:20.402Z,97721.41
2024-03-12T04:08:23.953Z,97720.59
2024-03-12T04:12:27.152Z,97720.13
2024-03-12T04:16:31.500Z,97723.13
2024-03-12T04:20:36.287Z,97733.94
2024-03-12T04:24:39.395Z,97735.88
2024-03-12T04:28:43.720Z,97747.22
2024-03-12T04:32:48.467Z,97741.25
2024-03-12T04:36:53.096Z,97749.97
2024-03-12T04:40:56.016Z,97749.25
2024-03-12T04:44:58.901Z,97754.59
2024-03-12T04:49:02.643Z,97755.59
2024-03-12T04:53:08.099Z,97756.78
2024-03-12T04:57:11.526Z,97769.06
2024-03-12T05:01:14.965Z,97767.53
2024-03-12T05:05:20.417Z,97771.06
2024-03-12T05:09:27.258Z,97774.69
2024-03-12T05:13:30.509Z,97778.97
2024-03-12T05:17:33.471Z,97797.31
2024-03-12T05:21:37.331Z,97797.47
2024-03-12T05:25:42.581Z,97796.63
2024-03-12T05:29:53.489Z,97806.03
2024-03-12T05:33:56.727Z,97800.84
2024-03-12T05:38:11.987Z,97801.75
2024-03-12T05:42:34.118Z,97802.06
2024-03-12T05:47:06.169Z,97809.13
2024-03-12T05:51:09.608Z,97814.41
2024-03-12T05:55:12.682Z,97818.63
2024-03-12T05:59:19.378Z,97822.81
2024-03-12T06:03:22.367Z,97827.22
2024-03-12T06:07:26.286Z,97828.91
2024-03-12T06:11:29.520Z,97832.25
2024-03-12T06:15:33.919Z,97838.31
2024-03-12T06:19:36.888Z,97842.66
2024-03-12T06:23:40.850Z,97842.66
2024-03-12T06:27:43.916Z,97846.03
2024-03-12T06:31:48.237Z,97860.66
2024-03-12T06:35:51.157Z,97862.25
2024-03-12T06:39:54.376Z,97858.84
2024-03-12T06:43:57.510Z,97862.19
2024-03-12T06:48:02.786Z,97864.88
2024-03-12T06:52:07.671Z,97877.81
2024-03-12T06:56:12.701Z,97881.88
2024-03-12T07:00:24.097Z,97893.81
2024-03-12T07:04:36.195Z,97891.19
2024-03-12T07:08:40.338Z,97897.31
2024-03-12T07:12:44.144Z,97898.34
2024-03-12T07:16:47.279Z,97907.06
2024-03-12T07:20:54.020Z,97914.66
2024-03-12T07:24:57.851Z,97916.34
2024-03-12T07:29:02.593Z,97923.25
2024-03-12T07:33:06.245Z,97930.19
2024-03-12T07:37:10.844Z,97923.09
2024-03-12T07:41:13.892Z,97925.56
2024-03-12T07:45:17.654Z,97926.47
2024-03-12T07:49:22.486Z,97924.59
2024-03-12T07:53:29.718Z,97927.97
2024-03-12T07:57:33.966Z,97934.88
2024-03-12T08:01:36.974Z,97933.78
2024-03-12T08:05:39.929Z,97940.50
2024-03-12T08:09:44.570Z,97938.53
2024-03-12T08:13:48.844Z,97951.38
2024-03-12T08:17:57.102Z,97946.00
2024-03-12T08:22:04.585Z,97951.16
2024-03-12T08:26:09.899Z,97953.59
2024-03-12T08:30:14.232Z,97948.88
2024-03-12T08:34:17.840Z,97960.84
2024-03-12T08:38:21.285Z,97954.75
2024-03-12T08:42:26.374Z,97960.06
2024-03-12T08:46:30.029Z,97959.31
2024-03-12T08:50:33.962Z,97976.63
2024-03-12T08:54:36.994Z,97976.41
2024-03-12T08:58:41.409Z,97980.78
2024-03-12T09:02:44.343Z,97983.22
2024-03-12T09:06:47.686Z,97982.28
2024-03-12T09:10:50.786Z,97980.28
2024-03-12T09:14:56.604Z,97982.66
2024-03-12T09:18:59.608Z,97989.13
2024-03-12T09:23:03.221Z,97985.75
2024-03-12T09:27:06.448Z,97985.91
2024-03-12T09:31:10.959Z,97984.66
2024-03-12T09:35:13.947Z,97990.25
2024-03-12T09:39:18.339Z,97988.72
2024-03-12T09:43:25.361Z,97994.63
2024-03-12T09:47:30.130Z,97989.59
2024-03-12T09:51:33.212Z,98005.59
2024-03-12T09:55:37.565Z,98014.44
2024-03-12T09:59:41.601Z,98018.06
2024-03-12T10:03:47.673Z,98016.13
2024-03-12T10:08:08.547Z,98022.94
2024-03-12T10:12:11.913Z,98032.03
2024-03-12T10:16:20.648Z,98030.53
2024-03-12T10:20:25.819Z,98028.66
2024-03-12T10:24:31.247Z,98031.13
2024-03-12T10:28:34.268Z,98043.84
2024-03-12T10:32:37.322Z,98038.44
2024-03-12T10:36:44.445Z,98041.97
2024-03-12T10:40:48.307Z,98042.06
2024-03-12T10:44:51.464Z,98045.44
2024-03-12T10:48:55.177Z,98045.34
2024-03-12T10:52:59.647Z,98048.72
2024-03-12T10:57:04.424Z,98032.97
2024-03-12T11:01:07.749Z,98036.63
2024-03-12T11:05:13.499Z,98030.13
2024-03-12T11:09:22.855Z,98031.63
2024-03-12T11:13:26.315Z,98025.31
2024-03-12T11:17:32.777Z,98029.25
2024-03-12T11:21:36.723Z,98021.81
2024-03-12T11:25:52.380Z,98022.81
2024-03-12T11:30:12.878Z,98022.06
2024-03-12T11:34:33.685Z,98021.69
2024-03-12T11:38:36.991Z,98021.63
2024-03-12T11:42:41.391Z,98026.75
2024-03-12T11:46:45.513Z,98032.72
2024-03-12T11:50:53.443Z,98027.31
2024-03-12T11:54:57.192Z,98034.97
2024-03-12T11:59:06.016Z,98045.63
2024-03-12T12:03:16.564Z,98048.59
2024-03-12T12:07:20.583Z,98040.91
2024-03-12T12:11:24.995Z,98043.63
2024-03-12T12:15:34.874Z,98042.81
2024-03-12T12:19:42.464Z,98046.69
2024-03-12T12:23:47.978Z,98042.03
2024-03-12T12:27:51.199Z,98040.50
2024-03-12T12:31:56.259Z,98042.19
2024-03-12T12:36:05.258Z,98041.25
2024-03-12T12:40:11.078Z,98038.47
2024-03-12T12:44:17.426Z,98040.06
2024-03-12T12:48:25.028Z,98039.97
2024-03-12T12:52:29.004Z,98032.69
2024-03-12T12:56:37.835Z,98035.88
2024-03-12T13:00:45.502Z,98025.22
2024-03-12T13:04:57.741Z,98029.28
2024-03-12T13:09:00.872Z,98025.38
2024-03-12T13:13:04.613Z,98021.53
2024-03-12T13:17:10.096Z,98023.00
2024-03-12T13:21:15.781Z,98026.22
2024-03-12T13:25:22.150Z,98014.63
2024-03-12T13:29:25.153Z,98026.78
2024-03-12T13:33:28.319Z,98031.06
2024-03-12T13:37:33.137Z,98037.25
2024-03-12T13:41:36.680Z,98038.16
2024-03-12T13:45:40.455Z,98035.56
2024-03-12T13:49:45.452Z,98031.25
2024-03-12T13:53:49.790Z,98033.03
2024-03-12T13:57:52.841Z,98040.03
2024-03-12T14:01:57.832Z,98040.97
2024-03-12T14:06:03.641Z,98040.97
2024-03-12T14:10:09.846Z,98040.97
2024-03-12T14:14:12.891Z,98044.53
2024-03-12T14:18:17.174Z,98044.53
2024-03-12T14:22:21.134Z,98053.09
2024-03-12T14:26:26.351Z,98040.97
2024-03-12T14:30:29.386Z,98048.91
2024-03-12T14:34:32.623Z,98043.50
2024-03-12T14:38:35.653Z,98046.56
2024-03-12T14:42:40.250Z,98044.53
2024-03-12T14:46:43.368Z,98039.00
2024-03-12T14:50:46.392Z,98046.53
2024-03-12T14:54:51.136Z,98037.91
2024-03-12T14:58:55.991Z,98048.28
2024-03-12T15:02:59.025Z,98050.19
2024-03-12T15:07:02.042Z,98056.41
2024-03-12T15:11:05.480Z,98046.94
2024-03-12T15:15:12.886Z,98036.66
2024-03-12T15:19:20.169Z,98038.16
2024-03-12T15:23:23.177Z,98030.13
2024-03-12T15:27:27.040Z,98034.47
2024-03-12T15:31:31.345Z,98023.03
2024-03-12T15:35:36.699Z,98027.34
2024-03-12T15:39:39.641Z,98017.81
2024-03-12T15:43:42.731Z,98018.16
2024-03-12T15:47:47.368Z,98015.53
2024-03-12T15:51:50.662Z,98019.13
2024-03-12T15:55:54.909Z,98016.50
2024-03-12T15:59:57.983Z,98018.34
2024-03-12T16:04:02.618Z,98019.66
2024-03-12T16:08:08.152Z,98013.69
2024-03-12T16:12:11.864Z,98017.63
2024-03-12T16:16:15.038Z,98018.25
2024-03-12T16:20:20.597Z,98020.41
2024-03-12T16:24:23.812Z,98026.56
2024-03-12T16:28:26.858Z,98027.69
2024-03-12T16:32:30.213Z,98038.50
2024-03-12T16:36:35.709Z,98052.69
2024-03-12T16:40:38.850Z,98059.19
2024-03-12T16:44:41.800Z,98054.41
2024-03-12T16:48:46.098Z,98048.44
2024-03-12T16:52:50.417Z,98049.28
2024-03-12T16:56:53.936Z,98055.53
2024-03-12T17:00:59.260Z,98046.09
2024-03-12T17:05:02.954Z,98050.66
2024-03-12T17:09:10.532Z,98047.28
2024-03-12T17:13:13.953Z,98045.69
2024-03-12T17:17:23.974Z,98050.16
2024-03-12T17:21:29.854Z,98057.25
2024-03-12T17:25:34.792Z,98055.56
2024-03-12T17:29:38.533Z,98058.34
2024-03-12T17:33:42.910Z,98056.75
2024-03-12T17:37:48.625Z,98051.88
2024-03-12T17:41:53.638Z,98061.69
2024-03-12T17:45:57.672Z,98070.44
2024-03-12T17:50:03.723Z,98070.44
2024-03-12T17:54:08.508Z,98066.22
2024-03-12T17:58:14.018Z,98076.81
2024-03-12T18:02:19.764Z,98079.72
2024-03-12T18:06:25.422Z,98083.41
2024-03-12T18:10:28.659Z,98088.63
2024-03-12T18:14:34.119Z,98095.53
2024-03-12T18:18:37.115Z,98088.47
2024-03-12T18:22:41.546Z,98093.69
2024-03-12T18:26:44.580Z,98085.84
2024-03-12T18:30:49.117Z,98090.31
2024-03-12T18:34:52.098Z,98095.53
2024-03-12T18:38:56.291Z,98101.63
2024-03-12T18:43:00.805Z,98104.97
2024-03-12T18:47:06.152Z,98102.28
2024-03-12T18:51:10.742Z,98109.19
2024-03-12T18:55:15.026Z,98116.28
2024-03-12T18:59:18.544Z,98117.94
2024-03-12T19:03:23.561Z,98117.19
2024-03-12T19:07:27.490Z,98114.94
2024-03-12T19:11:31.958Z,98117.63
2024-03-12T19:15:37.955Z,98125.88
2024-03-12T19:19:44.048Z,98119.44
2024-03-12T19:23:49.435Z,98122.56
2024-03-12T19:27:52.584Z,98121.06
2024-03-12T19:31:56.146Z,98116.91
2024-03-12T19:36:01.350Z,98121.09
2024-03-12T19:40:06.593Z,98124.41
2024-03-12T19:44:10.526Z,98124.34
2024-03-12T19:48:14.173Z,98121.78
2024-03-12T19:52:19.847Z,98119.94
2024-03-12T19:56:23.123Z,98118.25
2024-03-12T20:00:30.954Z,98128.69
2024-03-12T20:04:35.069Z,98131.22
2024-03-12T20:08:39.999Z,98136.38
2024-03-12T20:12:44.081Z,98137.13
2024-03-12T20:16:47.406Z,98134.69
2024-03-12T20:20:50.459Z,98133.91
2024-03-12T20:24:55.519Z,98147.16
2024-03-12T20:28:58.464Z,98140.56
2024-03-12T20:33:02.909Z,98147.00
2024-03-12T20:37:09.880Z,98140.09
2024-03-12T20:41:15.433Z,98136.56
2024-03-12T20:45:21.621Z,98131.53
2024-03-12T20:49:25.556Z,98132.38
2024-03-12T20:53:29.274Z,98127.00
2024-03-12T20:57:33.612Z,98119.09
2024-03-12T21:01:37.671Z,98116.38
2024-03-12T21:05:41.988Z,98115.56
2024-03-12T21:09:44.906Z,98119.91
2024-03-12T21:13:49.285Z,98111.25
2024-03-12T21:17:54.202Z,98110.34
2024-03-12T21:21:57.394Z,98108.66
2024-03-12T21:26:00.295Z,98101.59
2024-03-12T21:30:09.977Z,98099.91
2024-03-12T21:34:13.121Z,98098.22
2024-03-12T21:38:16.165Z,98097.53
2024-03-12T21:42:20.230Z,98092.41
2024-03-12T21:46:25.630Z,98089.78
2024-03-12T21:50:28.616Z,98095.00
2024-03-12T21:54:31.617Z,98086.25
2024-03-12T21:58:34.536Z,98079.50
2024-03-12T22:02:39.123Z,98084.72
2024-03-12T22:06:42.870Z,98076.16
2024-03-12T22:10:47.612Z,98071.06
2024-03-12T22:14:50.600Z,98061.66
2024-03-12T22:18:54.936Z,98060.97
2024-03-12T22:22:58.200Z,98064.66
2024-03-12T22:27:01.107Z,98063.06
2024-03-12T22:31:04.350Z,98057.94
2024-03-12T22:35:09.686Z,98057.06
2024-03-12T22:39:14.465Z,98056.41
2024-03-12T22:43:17.974Z,98053.97
2024-03-12T22:47:22.174Z,98054.88
2024-03-12T22:51:27.590Z,98049.84
2024-03-12T22:55:31.730Z,98052.59
2024-03-12T22:59:35.390Z,98052.59
2024-03-12T23:03:38.783Z,98050.94
2024-03-12T23:07:43.696Z,98043.09
2024-03-12T23:11:47.480Z,98032.66
2024-03-12T23:15:50.609Z,98030.06
2024-03-12T23:19:53.580Z,98026.50
2024-03-12T23:23:59.824Z,98023.91
2024-03-12T23:28:05.080Z,98018.78
2024-03-12T23:32:08.478Z,98020.69
2024-03-12T23:36:12.536Z,98024.22
2024-03-12T23:40:17.149Z,98020.88
2024-03-12T23:44:20.104Z,98012.13
2024-03-12T23:48:23.336Z,98010.53
2024-03-12T23:52:26.474Z,98008.84
2024-03-12T23:56:31.444Z,97997.53
